Time;durP1;ratioP1;P1;durP2;ratioP2;P2;SDS_P1;SDS_P2;PMS_P1;PMS_P2;Temp;Humidity;BMP_temperature;BMP_pressure;BME280_temperature;BME280_humidity;BME280_pressure;Samples;Min_cycle;Max_cycle;Signal;HPM_P1;HPM_P2
2023/07/20 00:00:12;;;;;;;0.15;0.10;;;;;;;14.50;62.06;100222.50;5008113;28;20064;-76
2023/07/20 00:02:39;;;;;;;1.65;0.10;;;;;;;14.51;62.14;100222.44;5007764;28;20061;-76
2023/07/20 00:05:07;;;;;;;0.55;0.10;;;;;;;14.50;62.21;100220.72;5007828;28;20137;-76
2023/07/20 00:07:33;;;;;;;0.95;0.10;;;;;;;14.53;62.00;100215.38;5007140;28;20466;-76
2023/07/20 00:10:00;;;;;;;2.35;0.10;;;;;;;14.54;61.88;100222.34;5007345;28;20054;-75
2023/07/20 00:12:29;;;;;;;1.65;0.10;;;;;;;14.54;62.03;100221.47;5006961;28;20049;-75
2023/07/20 00:14:56;;;;;;;0.95;0.10;;;;;;;14.51;62.05;100222.44;5006957;28;20502;-76
2023/07/20 00:17:22;;;;;;;1.15;0.20;;;;;;;14.54;62.11;100216.22;5006683;28;20422;-76
2023/07/20 00:19:49;;;;;;;1.40;0.10;;;;;;;14.55;62.00;100217.94;5008126;28;20053;-76
2023/07/20 00:22:16;;;;;;;0.30;0.10;;;;;;;14.35;61.84;100189.88;5007911;28;20056;-76
2023/07/20 00:24:43;;;;;;;0.60;0.10;;;;;;;14.54;61.91;100214.47;5008116;28;20524;-75
2023/07/20 00:27:10;;;;;;;0.25;0.10;;;;;;;14.52;61.92;100213.69;5006783;28;20522;-76
2023/07/20 00:29:38;;;;;;;0.40;0.08;;;;;;;14.52;61.74;100216.31;5007760;28;20069;-75
2023/07/20 00:32:06;;;;;;;0.22;0.10;;;;;;;14.51;61.72;100216.31;5007849;28;20053;-78
2023/07/20 00:34:33;;;;;;;0.35;0.10;;;;;;;14.49;61.67;100213.78;5007464;28;20096;-75
2023/07/20 00:37:00;;;;;;;0.63;0.10;;;;;;;14.47;61.78;100215.59;5007837;28;20050;-75
2023/07/20 00:39:27;;;;;;;1.10;0.10;;;;;;;14.44;61.71;100221.00;5008093;28;20046;-75
2023/07/20 00:41:54;;;;;;;0.30;0.10;;;;;;;14.44;61.50;100221.00;5007640;28;20525;-75
2023/07/20 00:44:21;;;;;;;0.95;0.10;;;;;;;14.41;61.67;100210.63;5008073;28;20053;-76
2023/07/20 00:46:49;;;;;;;3.15;0.10;;;;;;;14.40;61.69;100214.19;5011672;28;20042;-76
2023/07/20 00:49:20;;;;;;;0.85;0.10;;;;;;;14.38;61.58;100216.88;5011240;28;20064;-76
2023/07/20 00:51:48;;;;;;;2.30;0.15;;;;;;;14.37;61.55;100222.16;5011208;28;20077;-78
2023/07/20 00:54:16;;;;;;;0.20;0.10;;;;;;;14.36;61.61;100223.09;5010891;28;20041;-76
2023/07/20 00:56:43;;;;;;;0.35;0.10;;;;;;;14.28;62.01;100217.31;5010811;28;20132;-76
2023/07/20 00:59:11;;;;;;;1.17;0.10;;;;;;;14.32;61.55;100226.78;5011564;28;20057;-75
2023/07/20 01:01:38;;;;;;;1.15;0.30;;;;;;;14.31;61.67;100227.69;5011471;28;20525;-75
2023/07/20 01:04:06;;;;;;;1.13;0.10;;;;;;;14.27;61.60;100220.88;5011448;28;20050;-76
2023/07/20 01:06:42;;;;;;;2.65;0.20;;;;;;;14.26;61.68;100221.78;5011733;28;20053;-76
2023/07/20 01:09:14;;;;;;;1.65;0.10;;;;;;;14.23;61.68;100216.66;5010603;28;20045;-76
2023/07/20 01:11:48;;;;;;;1.38;0.45;;;;;;;14.20;61.75;100222.03;5010251;28;20514;-76
2023/07/20 01:14:15;;;;;;;0.55;0.10;;;;;;;14.18;61.87;100220.34;5011358;28;20422;-76
2023/07/20 01:16:42;;;;;;;0.50;0.10;;;;;;;14.14;61.72;100218.78;5011344;28;20486;-76
2023/07/20 01:19:10;;;;;;;1.10;0.10;;;;;;;14.13;61.86;100221.44;5011198;28;20056;-75
2023/07/20 01:21:45;;;;;;;0.85;0.20;;;;;;;14.06;61.91;100210.38;5011443;28;20057;-75
2023/07/20 01:24:39;;;;;;;0.47;0.10;;;;;;;14.07;61.87;100205.97;5011038;28;20057;-75
2023/07/20 01:27:38;;;;;;;0.10;0.10;;;;;;;14.04;61.96;100206.09;5011322;28;20054;-75
2023/07/20 01:30:39;;;;;;;2.92;0.20;;;;;;;13.98;62.02;100212.44;5009706;28;20045;-75
2023/07/20 01:33:10;;;;;;;3.53;0.15;;;;;;;13.97;62.23;100208.09;5000902;28;20052;-75
2023/07/20 01:35:39;;;;;;;1.45;0.40;;;;;;;13.95;62.19;100212.56;5011264;28;20061;-75
2023/07/20 01:38:08;;;;;;;3.50;0.35;;;;;;;13.93;62.20;100214.41;5009613;28;20056;-76
2023/07/20 01:40:35;;;;;;;1.98;0.20;;;;;;;13.90;62.30;100209.28;5008035;28;20056;-75
2023/07/20 01:43:03;;;;;;;0.13;0.10;;;;;;;13.87;62.72;100209.41;5010343;28;20388;-75
2023/07/20 01:45:30;;;;;;;1.52;0.10;;;;;;;13.85;62.59;100205.97;5010954;28;20049;-76
2023/07/20 01:47:57;;;;;;;1.08;0.20;;;;;;;13.82;62.74;100211.38;5010705;28;20136;-75
2023/07/20 01:50:25;;;;;;;6.82;0.13;;;;;;;13.80;62.90;100206.16;5009513;28;20495;-75
2023/07/20 01:52:52;;;;;;;0.77;0.10;;;;;;;13.77;63.08;100200.19;5010383;28;20053;-75
2023/07/20 01:55:19;;;;;;;1.50;0.10;;;;;;;13.75;62.90;100199.41;5010458;28;20498;-75
2023/07/20 01:57:46;;;;;;;1.75;0.68;;;;;;;13.72;62.91;100200.41;5007715;28;20410;-75
2023/07/20 02:00:14;;;;;;;3.75;0.40;;;;;;;13.70;63.17;100203.06;5010227;28;20414;-76
2023/07/20 02:02:42;;;;;;;0.75;0.10;;;;;;;13.61;62.99;100187.69;5010082;28;20057;-75
2023/07/20 02:05:09;;;;;;;0.80;0.20;;;;;;;13.64;63.13;100192.81;5010631;28;20570;-75
2023/07/20 02:07:37;;;;;;;3.55;0.10;;;;;;;13.63;63.17;100193.75;5010584;28;20434;-75
2023/07/20 02:10:05;;;;;;;3.97;1.17;;;;;;;13.56;63.40;100186.19;5009612;28;20046;-76
2023/07/20 02:12:32;;;;;;;1.70;0.20;;;;;;;13.60;63.53;100187.75;5010594;28;20054;-69
2023/07/20 02:14:59;;;;;;;1.00;0.15;;;;;;;13.56;63.12;100184.41;5008973;28;20056;-69
2023/07/20 02:17:26;;;;;;;2.50;0.20;;;;;;;13.55;63.69;100187.94;5010364;28;20388;-70
2023/07/20 02:19:54;;;;;;;4.85;1.27;;;;;;;13.54;63.59;100191.47;5012033;28;20046;-81
2023/07/20 02:22:21;;;;;;;6.25;0.20;;;;;;;13.53;63.78;100192.41;5013938;28;20046;-80
2023/07/20 02:24:50;;;;;;;3.92;0.22;;;;;;;13.52;63.96;100188.06;5014023;28;20452;-80
2023/07/20 02:27:17;;;;;;;4.25;0.30;;;;;;;13.49;63.88;100191.69;5013994;28;20395;-81
2023/07/20 02:29:44;;;;;;;2.95;0.20;;;;;;;13.51;63.96;100196.84;5013762;28;20050;-81
2023/07/20 02:32:10;;;;;;;1.33;0.20;;;;;;;13.35;64.08;100169.50;5014052;28;20046;-81
2023/07/20 02:34:38;;;;;;;2.60;0.20;;;;;;;13.48;64.11;100191.72;5013947;28;20050;-81
2023/07/20 02:37:05;;;;;;;6.03;0.30;;;;;;;13.46;64.13;100190.91;5014418;28;20065;-81
2023/07/20 02:39:32;;;;;;;0.68;0.13;;;;;;;13.46;64.31;100198.78;5013911;28;20426;-81
2023/07/20 02:42:01;;;;;;;0.80;0.20;;;;;;;13.43;64.50;100191.91;5013739;28;20054;-81
2023/07/20 02:44:27;;;;;;;1.75;0.40;;;;;;;13.43;64.54;100193.66;5014159;28;20042;-81
2023/07/20 02:46:54;;;;;;;1.33;0.20;;;;;;;13.41;64.43;100187.66;5014210;28;20477;-81
2023/07/20 02:49:21;;;;;;;3.67;0.80;;;;;;;13.38;64.53;100185.16;5013817;28;20056;-81
2023/07/20 02:51:48;;;;;;;3.63;0.30;;;;;;;13.37;64.50;100186.03;5013264;28;20056;-82
2023/07/20 02:54:16;;;;;;;1.88;0.20;;;;;;;13.36;64.88;100184.34;5013441;28;20054;-82
2023/07/20 02:56:43;;;;;;;2.42;0.20;;;;;;;13.35;64.83;100198.34;5011972;28;20050;-81
2023/07/20 02:59:11;;;;;;;1.83;0.10;;;;;;;13.34;64.89;100188.78;5013161;28;20052;-82
2023/07/20 03:01:38;;;;;;;2.97;0.20;;;;;;;13.31;64.89;100189.75;5013418;28;20061;-82
2023/07/20 03:04:05;;;;;;;2.83;0.20;;;;;;;13.30;64.95;100189.84;5013407;28;20044;-82
2023/07/20 03:06:32;;;;;;;2.15;1.13;;;;;;;13.31;65.06;100194.16;5013003;28;20505;-83
2023/07/20 03:08:59;;;;;;;4.43;0.25;;;;;;;13.31;65.19;100191.53;5008674;28;20084;-82
2023/07/20 03:11:26;;;;;;;3.65;0.28;;;;;;;13.28;65.14;100188.09;5012122;28;20054;-82
2023/07/20 03:13:52;;;;;;;1.63;0.20;;;;;;;13.28;65.13;100195.13;5013266;28;20446;-82
2023/07/20 03:16:21;;;;;;;3.50;0.68;;;;;;;13.28;65.38;100189.88;5012871;28;20084;-82
2023/07/20 03:18:48;;;;;;;1.30;0.30;;;;;;;13.27;65.53;100191.66;5001150;28;20053;-81
2023/07/20 03:21:15;;;;;;;2.13;0.30;;;;;;;13.27;65.45;100180.31;5011869;28;20080;-81
2023/07/20 03:23:42;;;;;;;3.08;0.93;;;;;;;13.27;65.57;100189.03;5004409;28;20046;-81
2023/07/20 03:26:09;;;;;;;4.13;0.30;;;;;;;13.24;65.88;100188.28;5013195;28;20413;-82
2023/07/20 03:28:36;;;;;;;2.45;0.40;;;;;;;13.25;65.71;100184.72;5012918;28;20061;-82
2023/07/20 03:31:03;;;;;;;3.45;0.95;;;;;;;13.20;65.85;100177.03;5012573;28;20050;-83
2023/07/20 03:33:33;;;;;;;5.00;0.30;;;;;;;13.27;65.84;100191.66;5013127;28;20060;-82
2023/07/20 03:36:00;;;;;;;1.75;0.20;;;;;;;13.27;65.98;100199.53;5012723;28;20490;-82
2023/07/20 03:38:28;;;;;;;3.22;0.30;;;;;;;13.28;66.11;100189.88;5012632;28;20060;-81
2023/07/20 03:40:56;;;;;;;8.55;0.30;;;;;;;13.29;66.41;100183.75;5006975;28;20052;-82
2023/07/20 03:43:23;;;;;;;2.90;0.20;;;;;;;13.27;66.23;100175.06;5012643;28;20052;-80
2023/07/20 03:45:51;;;;;;;0.82;0.30;;;;;;;13.31;66.52;100196.78;5012952;28;20084;-82
2023/07/20 03:48:19;;;;;;;3.55;0.35;;;;;;;13.33;66.81;100189.72;5013159;28;20050;-82
2023/07/20 03:50:48;;;;;;;6.15;0.30;;;;;;;13.34;66.75;100199.28;5009760;28;20042;-81
2023/07/20 03:53:16;;;;;;;6.32;0.20;;;;;;;13.28;66.70;100195.97;5012368;28;20084;-82
2023/07/20 03:55:46;;;;;;;5.00;0.28;;;;;;;13.37;66.76;100199.16;5012568;28;20140;-81
2023/07/20 03:58:13;;;;;;;1.85;0.40;;;;;;;13.39;66.94;100199.97;5012807;28;20045;-81
2023/07/20 04:00:40;;;;;;;0.98;0.20;;;;;;;13.41;66.90;100193.75;5012157;28;20506;-81
2023/07/20 04:03:07;;;;;;;1.73;0.20;;;;;;;13.40;66.88;100192.00;5012708;28;20073;-81
2023/07/20 04:05:34;;;;;;;5.47;0.30;;;;;;;13.47;66.96;100203.13;5012204;28;20073;-81
2023/07/20 04:08:02;;;;;;;2.80;0.38;;;;;;;13.52;66.97;100198.56;5012176;28;20490;-81
2023/07/20 04:10:29;;;;;;;2.05;0.75;;;;;;;13.54;66.96;100199.34;5011945;28;20046;-81
2023/07/20 04:12:56;;;;;;;3.28;0.30;;;;;;;13.59;67.02;100200.03;5012177;28;20052;-81
2023/07/20 04:15:23;;;;;;;3.33;0.30;;;;;;;13.63;67.09;100203.38;5012222;28;20064;-82
2023/07/20 04:17:50;;;;;;;5.45;0.38;;;;;;;13.65;67.20;100194.53;5011909;28;20697;-82
2023/07/20 04:20:17;;;;;;;2.25;0.40;;;;;;;13.73;67.08;100199.47;5012001;28;20050;-81
2023/07/20 04:22:45;;;;;;;3.20;0.30;;;;;;;13.77;67.42;100202.81;5011863;28;20049;-80
2023/07/20 04:25:13;;;;;;;3.67;0.30;;;;;;;13.82;67.51;100200.88;5012144;28;20414;-80
2023/07/20 04:27:40;;;;;;;7.70;1.38;;;;;;;13.88;67.51;100208.47;5006235;28;20050;-80
2023/07/20 04:30:09;;;;;;;8.70;0.40;;;;;;;13.92;67.65;100207.44;5011988;28;20056;-80
2023/07/20 04:32:37;;;;;;;1.80;0.30;;;;;;;13.94;67.47;100200.34;5012231;28;20056;-79
2023/07/20 04:35:07;;;;;;;6.03;0.50;;;;;;;14.05;67.40;100208.63;5011591;28;20050;-80
2023/07/20 04:37:34;;;;;;;6.05;0.40;;;;;;;14.11;67.32;100208.38;5011830;28;20049;-80
2023/07/20 04:40:01;;;;;;;3.60;0.70;;;;;;;14.18;67.51;100199.31;5011060;28;20050;-80
2023/07/20 04:42:29;;;;;;;10.05;0.82;;;;;;;14.27;67.69;100198.06;5011197;28;20499;-79
2023/07/20 04:44:56;;;;;;;3.40;0.38;;;;;;;14.35;67.68;100203.00;5011393;28;20042;-79
2023/07/20 04:47:23;;;;;;;4.18;0.70;;;;;;;14.42;67.54;100193.94;5011504;28;20050;-80
2023/07/20 04:49:50;;;;;;;3.35;0.40;;;;;;;14.53;67.42;100194.34;5011706;28;20060;-79
2023/07/20 04:52:17;;;;;;;5.97;0.40;;;;;;;14.64;67.41;100193.88;5011134;28;20046;-79
2023/07/20 04:54:44;;;;;;;4.05;0.30;;;;;;;14.75;67.14;100193.41;5010891;28;20053;-79
2023/07/20 04:57:13;;;;;;;6.95;0.40;;;;;;;14.86;66.92;100191.16;5010957;28;20042;-79
2023/07/20 04:59:41;;;;;;;5.13;0.43;;;;;;;14.99;66.89;100191.41;5011133;28;20049;-80
2023/07/20 05:02:08;;;;;;;3.63;0.35;;;;;;;15.10;66.75;100183.88;5011034;28;20794;-79
2023/07/20 05:04:35;;;;;;;5.78;1.02;;;;;;;15.22;66.49;100190.34;5010907;28;20042;-79
2023/07/20 05:07:02;;;;;;;3.33;0.30;;;;;;;15.34;66.06;100195.06;5010901;28;20050;-78
2023/07/20 05:09:29;;;;;;;2.28;0.32;;;;;;;15.44;65.97;100180.50;5010762;28;20050;-79
2023/07/20 05:11:56;;;;;;;4.20;0.43;;;;;;;15.59;65.90;100185.97;5010363;28;20050;-79
2023/07/20 05:14:23;;;;;;;7.65;0.40;;;;;;;15.69;65.47;100189.91;5010558;28;20582;-79
2023/07/20 05:16:51;;;;;;;4.45;0.52;;;;;;;15.80;65.04;100184.94;5011230;28;20449;-79
2023/07/20 05:19:18;;;;;;;7.22;0.40;;;;;;;15.93;65.04;100188.66;5010943;28;20610;-78
2023/07/20 05:21:45;;;;;;;6.80;0.65;;;;;;;16.03;64.59;100181.16;5003050;28;20060;-78
2023/07/20 05:24:11;;;;;;;4.00;0.32;;;;;;;16.16;64.68;100190.13;5010779;28;20050;-78
2023/07/20 05:26:39;;;;;;;5.00;1.08;;;;;;;16.28;64.31;100182.53;5010711;28;20042;-78
2023/07/20 05:29:05;;;;;;;4.40;0.35;;;;;;;16.40;64.14;100189.81;5002868;28;20506;-79
2023/07/20 05:31:32;;;;;;;4.28;0.40;;;;;;;16.50;63.78;100184.91;5006763;28;20053;-80
2023/07/20 05:34:01;;;;;;;6.47;0.40;;;;;;;16.60;63.75;100179.09;5014358;28;20085;-79
2023/07/20 05:36:28;;;;;;;1.52;0.20;;;;;;;16.72;63.43;100188.13;5014272;28;20413;-80
2023/07/20 05:38:55;;;;;;;2.08;0.32;;;;;;;16.75;63.30;100166.84;5013804;28;20079;-80
2023/07/20 05:41:22;;;;;;;1.95;0.35;;;;;;;16.95;62.85;100184.28;5014299;28;20061;-79
2023/07/20 05:43:49;;;;;;;2.35;0.47;;;;;;;17.05;62.50;100182.84;5014510;28;20050;-80
2023/07/20 05:46:16;;;;;;;6.20;0.40;;;;;;;17.15;62.47;100183.19;5013928;28;20052;-79
2023/07/20 05:48:43;;;;;;;2.85;0.38;;;;;;;17.25;62.29;100184.41;5014589;28;20065;-79
2023/07/20 05:51:11;;;;;;;7.60;0.60;;;;;;;17.34;61.68;100177.75;5012688;28;20129;-79
2023/07/20 05:53:38;;;;;;;2.40;0.30;;;;;;;17.41;61.41;100178.25;5014412;28;20052;-79
2023/07/20 05:56:06;;;;;;;9.63;0.70;;;;;;;17.50;61.05;100180.34;5014100;28;20510;-79
2023/07/20 05:58:32;;;;;;;4.03;0.43;;;;;;;17.57;61.10;100189.66;5013916;28;20058;-79
2023/07/20 06:00:59;;;;;;;5.55;0.38;;;;;;;17.34;60.40;100127.59;5013838;28;20053;-79
2023/07/20 06:03:26;;;;;;;1.67;0.50;;;;;;;17.66;60.38;100167.13;5013977;28;20494;-80
2023/07/20 06:05:58;;;;;;;6.97;0.57;;;;;;;17.67;60.65;100167.06;5014248;28;20050;-79
2023/07/20 06:08:27;;;;;;;6.68;0.47;;;;;;;17.76;60.47;100179.75;5014106;28;20050;-79
2023/07/20 06:10:54;;;;;;;1.55;0.28;;;;;;;17.84;60.38;100181.09;5014418;28;20042;-80
2023/07/20 06:13:21;;;;;;;1.67;0.30;;;;;;;17.87;59.99;100171.22;5015098;28;20080;-79
2023/07/20 06:15:48;;;;;;;5.35;0.40;;;;;;;17.92;59.94;100173.59;5014781;28;20125;-80
2023/07/20 06:18:15;;;;;;;5.65;0.55;;;;;;;17.89;59.99;100161.41;5014425;28;20050;-80
2023/07/20 06:20:42;;;;;;;3.40;0.40;;;;;;;17.96;59.55;100169.84;5014337;28;20509;-80
2023/07/20 06:23:09;;;;;;;4.97;0.88;;;;;;;17.97;59.33;100167.09;5014140;28;20133;-80
2023/07/20 06:25:37;;;;;;;3.60;1.02;;;;;;;18.01;59.53;100169.53;5013978;28;20046;-81
2023/07/20 06:28:05;;;;;;;5.13;0.30;;;;;;;18.02;59.38;100166.81;5009032;28;20501;-79
2023/07/20 06:30:34;;;;;;;3.20;0.32;;;;;;;18.05;59.32;100164.00;5013712;28;20045;-79
2023/07/20 06:33:01;;;;;;;2.55;0.40;;;;;;;18.07;59.63;100175.34;5013575;28;20050;-79
2023/07/20 06:35:28;;;;;;;4.30;0.47;;;;;;;18.08;59.38;100166.47;5014116;28;20048;-79
2023/07/20 06:37:55;;;;;;;4.90;0.40;;;;;;;18.10;59.35;100169.88;5013948;28;20054;-79
2023/07/20 06:40:22;;;;;;;4.95;0.30;;;;;;;18.03;59.10;100152.66;5013966;28;20046;-80
2023/07/20 06:42:51;;;;;;;2.35;0.25;;;;;;;18.14;58.96;100166.09;5013254;28;20049;-79
2023/07/20 06:45:18;;;;;;;4.10;0.40;;;;;;;18.14;59.09;100162.59;5014008;28;20046;-79
2023/07/20 06:47:45;;;;;;;4.93;0.32;;;;;;;18.16;58.75;100160.72;5013825;28;20053;-79
2023/07/20 06:50:12;;;;;;;3.30;0.40;;;;;;;18.17;58.74;100163.25;5014007;28;20052;-80
2023/07/20 06:52:39;;;;;;;3.35;0.30;;;;;;;18.06;59.15;100136.63;5013276;28;20050;-79
2023/07/20 06:55:08;;;;;;;1.42;0.40;;;;;;;18.22;58.63;100164.78;5014087;28;20053;-79
2023/07/20 06:57:35;;;;;;;2.28;0.40;;;;;;;18.19;58.78;100163.19;5013799;28;20145;-79
2023/07/20 07:00:04;;;;;;;1.67;0.32;;;;;;;18.26;58.53;100161.84;5012927;28;20517;-79
2023/07/20 07:02:30;;;;;;;2.78;0.30;;;;;;;18.25;58.79;100156.69;5013217;28;20053;-79
2023/07/20 07:04:57;;;;;;;3.08;0.60;;;;;;;18.13;58.33;100130.03;5012656;28;20048;-79
2023/07/20 07:07:24;;;;;;;5.38;0.40;;;;;;;18.35;58.47;100160.44;5012661;28;20050;-77
2023/07/20 07:09:51;;;;;;;3.83;0.30;;;;;;;18.37;58.39;100154.13;5011937;28;20461;-78
2023/07/20 07:12:18;;;;;;;3.60;0.30;;;;;;;18.45;58.09;100152.81;5011582;28;20045;-78
2023/07/20 07:14:45;;;;;;;6.80;0.55;;;;;;;18.49;57.48;100151.69;5011652;28;20049;-78
2023/07/20 07:17:14;;;;;;;5.55;0.40;;;;;;;18.55;57.69;100152.13;5012012;28;20049;-77
2023/07/20 07:19:42;;;;;;;5.05;0.30;;;;;;;18.51;57.59;100132.13;5011738;28;20103;-77
2023/07/20 07:22:08;;;;;;;5.05;0.30;;;;;;;18.69;57.84;100147.81;5011231;28;20046;-78
2023/07/20 07:24:35;;;;;;;6.18;0.30;;;;;;;18.77;57.48;100146.41;5011316;28;20056;-77
2023/07/20 07:27:03;;;;;;;2.97;0.30;;;;;;;18.83;57.55;100150.47;5011573;28;20057;-77
2023/07/20 07:29:30;;;;;;;4.32;0.30;;;;;;;18.91;57.62;100150.84;5008790;28;20499;-77
2023/07/20 07:31:58;;;;;;;6.38;0.90;;;;;;;18.99;56.83;100153.84;5011285;28;20056;-77
2023/07/20 07:34:26;;;;;;;1.88;0.32;;;;;;;19.12;56.42;100148.63;5010202;28;20041;-77
2023/07/20 07:36:53;;;;;;;3.05;0.20;;;;;;;19.24;56.49;100149.63;5011552;28;20127;-78
2023/07/20 07:39:20;;;;;;;4.00;0.60;;;;;;;19.34;56.30;100150.75;5009464;28;20042;-77
2023/07/20 07:41:47;;;;;;;1.15;0.22;;;;;;;19.43;56.18;100144.84;5010947;28;20060;-77
2023/07/20 07:44:14;;;;;;;3.88;0.35;;;;;;;19.53;55.28;100145.09;5010865;28;20053;-78
2023/07/20 07:46:41;;;;;;;4.72;0.28;;;;;;;19.55;55.09;100133.47;5010912;28;20401;-78
2023/07/20 07:49:08;;;;;;;1.05;0.32;;;;;;;19.71;55.13;100140.41;5008541;28;20134;-77
2023/07/20 07:51:36;;;;;;;2.00;0.30;;;;;;;19.79;54.48;100138.09;5010285;28;20049;-77
2023/07/20 07:54:03;;;;;;;4.32;0.70;;;;;;;19.78;54.07;100128.47;5010871;28;20045;-77
2023/07/20 07:56:30;;;;;;;3.45;0.30;;;;;;;19.93;54.31;100137.19;5010787;28;20050;-77
2023/07/20 07:58:57;;;;;;;1.90;0.30;;;;;;;20.05;53.75;100146.94;5011108;28;20752;-77
2023/07/20 08:01:25;;;;;;;4.72;0.47;;;;;;;20.13;53.68;100143.78;5010455;28;20077;-77
2023/07/20 08:03:52;;;;;;;4.20;0.30;;;;;;;20.18;53.37;100142.50;5010195;28;20096;-77
2023/07/20 08:06:19;;;;;;;2.33;0.40;;;;;;;20.30;52.70;100147.94;5010770;28;20049;-77
2023/07/20 08:08:47;;;;;;;1.95;0.20;;;;;;;20.37;52.68;100152.69;5010363;28;20144;-78
2023/07/20 08:11:14;;;;;;;2.70;0.30;;;;;;;20.45;52.75;100145.03;5008559;28;20056;-78
2023/07/20 08:13:41;;;;;;;2.80;0.30;;;;;;;20.52;52.72;100144.59;5010741;28;20384;-77
2023/07/20 08:16:08;;;;;;;2.78;0.38;;;;;;;20.58;52.41;100138.94;5010623;28;20042;-79
2023/07/20 08:18:35;;;;;;;2.17;0.20;;;;;;;20.64;52.53;100146.44;5010579;28;20495;-78
2023/07/20 08:21:02;;;;;;;3.88;0.43;;;;;;;20.68;52.05;100129.34;5011045;28;20132;-78
2023/07/20 08:23:29;;;;;;;2.00;0.30;;;;;;;20.81;51.97;100140.78;5010816;28;20556;-78
2023/07/20 08:25:58;;;;;;;0.80;0.20;;;;;;;20.88;51.51;100136.72;5010961;28;20052;-77
2023/07/20 08:28:26;;;;;;;2.08;0.20;;;;;;;20.88;51.39;100130.56;5011033;28;20125;-78
2023/07/20 08:30:53;;;;;;;0.55;0.20;;;;;;;20.98;50.32;100147.56;5011256;28;20125;-78
2023/07/20 08:33:20;;;;;;;2.30;0.30;;;;;;;20.96;50.44;100135.34;5010950;28;20052;-78
2023/07/20 08:35:48;;;;;;;2.40;0.20;;;;;;;20.99;50.27;100138.63;5011073;28;20056;-78
2023/07/20 08:38:14;;;;;;;0.40;0.20;;;;;;;21.01;50.52;100141.19;5011295;28;20085;-79
2023/07/20 08:40:43;;;;;;;1.50;0.95;;;;;;;21.01;50.36;100146.50;5010703;28;20434;-79
2023/07/20 08:43:11;;;;;;;2.45;0.32;;;;;;;20.99;50.24;100143.09;5011010;28;20050;-79
2023/07/20 08:45:40;;;;;;;0.90;0.20;;;;;;;20.93;49.72;100141.72;5011234;28;20056;-79
2023/07/20 08:48:08;;;;;;;3.53;0.82;;;;;;;20.94;49.37;100147.88;5010814;28;20081;-79
2023/07/20 08:50:36;;;;;;;0.45;0.20;;;;;;;20.88;49.28;100150.00;5010902;28;20046;-78
2023/07/20 08:53:03;;;;;;;1.48;0.20;;;;;;;20.85;48.99;100146.72;5011043;28;20050;-78
2023/07/20 08:55:30;;;;;;;3.67;0.40;;;;;;;20.81;49.07;100145.25;5011207;28;20038;-79
2023/07/20 08:57:59;;;;;;;1.55;0.20;;;;;;;20.76;49.02;100147.38;5000383;28;20512;-79
2023/07/20 09:00:29;;;;;;;0.50;0.20;;;;;;;20.74;49.11;100144.81;5010327;28;20060;-78
2023/07/20 09:02:56;;;;;;;1.25;0.20;;;;;;;20.71;49.25;100146.84;5000798;28;20054;-79
2023/07/20 09:05:25;;;;;;;4.55;0.28;;;;;;;20.74;49.51;100146.63;5012884;28;20048;-79
2023/07/20 09:07:53;;;;;;;1.70;0.20;;;;;;;20.73;49.90;100140.50;5014652;28;20042;-78
2023/07/20 09:10:21;;;;;;;2.60;0.20;;;;;;;20.78;49.39;100146.31;5014706;28;20433;-78
2023/07/20 09:12:49;;;;;;;2.10;0.22;;;;;;;20.82;48.88;100137.16;5013875;28;20050;-79
2023/07/20 09:15:16;;;;;;;2.78;0.25;;;;;;;20.86;49.20;100136.00;5014230;28;20050;-79
2023/07/20 09:17:48;;;;;;;0.60;0.20;;;;;;;20.91;48.71;100129.50;5014601;28;20054;-78
2023/07/20 09:20:17;;;;;;;0.77;0.15;;;;;;;20.94;48.61;100135.44;5014700;28;20053;-79
2023/07/20 09:22:45;;;;;;;0.90;0.30;;;;;;;20.99;47.90;100137.78;5014336;28;20056;-79
2023/07/20 09:25:13;;;;;;;0.55;0.20;;;;;;;21.01;47.85;100139.38;5014454;28;20125;-79
2023/07/20 09:27:42;;;;;;;2.65;0.22;;;;;;;21.03;48.01;100144.53;5014578;28;20498;-79
2023/07/20 09:30:12;;;;;;;1.45;0.20;;;;;;;21.03;48.24;100144.53;5014143;28;20050;-79
2023/07/20 09:32:41;;;;;;;1.60;0.20;;;;;;;21.03;47.94;100144.53;5014244;28;20054;-78
2023/07/20 09:35:14;;;;;;;3.10;0.30;;;;;;;21.02;48.11;100148.19;5013954;28;20560;-78
2023/07/20 09:37:47;;;;;;;0.47;0.20;;;;;;;21.01;48.34;100146.50;5014181;28;20057;-78
2023/07/20 09:40:17;;;;;;;1.67;0.30;;;;;;;20.89;47.72;100127.81;5014452;28;20042;-79
2023/07/20 09:42:44;;;;;;;0.50;0.20;;;;;;;20.95;47.65;100142.47;5014264;28;20050;-79
2023/07/20 09:45:12;;;;;;;1.50;0.20;;;;;;;20.95;48.05;100153.09;5013837;28;20418;-79
2023/07/20 09:47:39;;;;;;;0.43;0.20;;;;;;;20.95;48.14;100146.94;5014121;28;20042;-78
2023/07/20 09:50:10;;;;;;;2.45;0.30;;;;;;;20.94;48.50;100153.19;5012994;28;20053;-79
2023/07/20 09:52:40;;;;;;;3.08;0.30;;;;;;;20.92;48.76;100152.44;5013580;28;20050;-79
2023/07/20 09:55:08;;;;;;;1.13;0.30;;;;;;;20.89;49.03;100137.59;5014011;28;20108;-78
2023/07/20 09:57:36;;;;;;;1.33;0.30;;;;;;;20.94;48.67;100150.53;5013743;28;20054;-79
2023/07/20 10:00:09;;;;;;;3.20;0.98;;;;;;;20.95;48.45;100137.16;5013272;28;20050;-79
2023/07/20 10:02:43;;;;;;;1.92;0.30;;;;;;;20.96;48.61;100143.31;5009847;28;20116;-78
2023/07/20 10:05:13;;;;;;;2.10;0.20;;;;;;;20.97;47.65;100137.03;5013509;28;20107;-78
2023/07/20 10:07:46;;;;;;;1.73;0.30;;;;;;;20.98;47.61;100136.09;5013820;28;20514;-79
2023/07/20 10:10:16;;;;;;;0.80;0.20;;;;;;;20.99;47.65;100137.78;5014015;28;20466;-78
2023/07/20 10:12:44;;;;;;;1.58;0.20;;;;;;;20.98;47.30;100136.09;5013649;28;20057;-78
2023/07/20 10:15:16;;;;;;;1.85;0.28;;;;;;;20.96;47.44;100135.34;5013671;28;20050;-80
2023/07/20 10:17:52;;;;;;;0.82;0.22;;;;;;;20.91;47.81;100137.47;5012003;28;20050;-79
2023/07/20 10:20:22;;;;;;;0.82;0.28;;;;;;;20.92;47.73;100131.19;5007989;28;20049;-79
2023/07/20 10:22:50;;;;;;;3.00;1.08;;;;;;;20.83;47.61;100122.09;5013939;28;20410;-78
2023/07/20 10:25:19;;;;;;;2.47;0.20;;;;;;;20.93;48.06;100135.56;5013086;28;20111;-78
2023/07/20 10:27:48;;;;;;;2.85;0.40;;;;;;;20.94;47.77;100134.59;5013368;28;20050;-78
2023/07/20 10:30:15;;;;;;;2.15;0.30;;;;;;;20.95;47.80;100123.88;5012941;28;20079;-78
2023/07/20 10:32:43;;;;;;;0.55;0.20;;;;;;;20.96;47.96;100122.06;5013209;28;20042;-79
2023/07/20 10:35:14;;;;;;;1.05;0.20;;;;;;;21.00;47.75;100134.16;5012867;28;20803;-79
2023/07/20 10:37:51;;;;;;;1.52;0.20;;;;;;;21.00;47.73;100129.69;5013083;28;20085;-79
2023/07/20 10:40:32;;;;;;;1.08;0.20;;;;;;;20.99;47.70;100133.31;5009001;28;20053;-79
2023/07/20 10:43:04;;;;;;;1.73;0.20;;;;;;;20.99;47.28;100129.81;5012442;28;20506;-79
2023/07/20 10:45:40;;;;;;;1.48;0.20;;;;;;;20.98;47.29;100136.09;5012820;28;20060;-79
2023/07/20 10:48:15;;;;;;;0.32;0.10;;;;;;;20.97;46.79;100135.22;5012079;28;20061;-79
2023/07/20 10:50:42;;;;;;;;;;;;;;;20.97;47.56;100140.53;5013537;28;20054;-79
2023/07/20 10:53:16;;;;;;;1.25;0.30;;;;;;;20.96;47.18;100138.00;5013049;28;19922;-79
2023/07/20 10:55:46;;;;;;;1.65;0.20;;;;;;;20.95;47.11;100133.66;5009524;28;20130;-79
2023/07/20 10:58:14;;;;;;;1.42;0.28;;;;;;;20.91;47.41;100135.66;5012553;28;20049;-80
2023/07/20 11:00:59;;;;;;;4.57;0.22;;;;;;;20.96;47.74;100133.53;5012447;28;20050;-79
2023/07/20 11:03:30;;;;;;;0.90;0.20;;;;;;;20.96;47.87;100135.34;5009305;28;20129;-79
2023/07/20 11:05:58;;;;;;;1.13;0.30;;;;;;;20.96;47.13;100130.03;5012783;28;20054;-79
2023/07/20 11:08:44;;;;;;;1.67;0.20;;;;;;;21.01;47.54;100125.25;5011626;28;20054;-82
2023/07/20 11:11:27;;;;;;;0.30;0.20;;;;;;;21.02;47.14;100124.28;5009941;28;20057;-78
2023/07/20 11:13:59;;;;;;;2.60;0.20;;;;;;;21.02;47.51;100124.28;5008607;28;20038;-79
2023/07/20 11:16:37;;;;;;;3.72;0.80;;;;;;;21.04;47.54;100112.59;5015252;28;20045;-78
2023/07/20 11:19:05;;;;;;;1.17;0.20;;;;;;;21.08;47.19;100126.47;5010028;28;20739;-78
2023/07/20 11:21:37;;;;;;;1.38;0.30;;;;;;;21.11;47.43;100126.25;5010016;28;20050;-78
2023/07/20 11:24:07;;;;;;;3.80;0.30;;;;;;;21.01;47.04;100109.31;5010309;28;20057;-78
2023/07/20 11:26:42;;;;;;;1.60;0.20;;;;;;;21.16;47.25;100133.91;5010291;28;20049;-79
2023/07/20 11:29:08;;;;;;;;;;;;;;;21.17;47.54;100124.97;5010332;28;20116;-78
2023/07/20 11:31:37;;;;;;;1.20;0.40;;;;;;;21.18;47.95;100124.88;5010300;28;20286;-80